createdAt,value
2024-01-21T00:00:22.733Z,75.39
2024-01-21T00:02:50.282Z,75.38
2024-01-21T00:05:17.141Z,75.11
2024-01-21T00:07:43.804Z,75.18
2024-01-21T00:10:13.417Z,75.20
2024-01-21T00:12:40.403Z,75.19
2024-01-21T00:15:07.848Z,75.40
2024-01-21T00:17:34.475Z,74.90
2024-01-21T00:20:01.056Z,75.13
2024-01-21T00:22:27.564Z,75.14
2024-01-21T00:24:54.200Z,75.33
2024-01-21T00:27:20.847Z,75.17
2024-01-21T00:29:47.451Z,75.05
2024-01-21T00:32:14.196Z,74.85
2024-01-21T00:34:41.205Z,74.76
2024-01-21T00:37:07.721Z,74.79
2024-01-21T00:39:34.731Z,74.81
2024-01-21T00:42:08.111Z,74.86
2024-01-21T00:44:37.405Z,74.87
2024-01-21T00:47:05.156Z,74.79
2024-01-21T00:49:33.071Z,74.85
2024-01-21T00:52:00.212Z,75.08
2024-01-21T00:54:26.819Z,75.05
2024-01-21T00:56:53.661Z,75.10
2024-01-21T00:59:20.456Z,74.92
2024-01-21T01:01:47.110Z,75.07
2024-01-21T01:04:14.245Z,74.74
2024-01-21T01:06:41.873Z,74.91
2024-01-21T01:09:09.172Z,74.53
2024-01-21T01:11:36.909Z,74.68
2024-01-21T01:14:04.119Z,74.78
2024-01-21T01:16:30.710Z,74.79
2024-01-21T01:18:58.874Z,74.93
2024-01-21T01:21:25.733Z,74.98
2024-01-21T01:23:52.304Z,74.82
2024-01-21T01:26:20.095Z,74.73
2024-01-21T01:28:46.768Z,74.82
2024-01-21T01:31:20.533Z,74.67
2024-01-21T01:33:47.901Z,74.39
2024-01-21T01:36:15.558Z,74.44
2024-01-21T01:38:43.976Z,74.34
2024-01-21T01:41:11.134Z,74.49
2024-01-21T01:43:38.105Z,74.50
2024-01-21T01:46:07.508Z,74.22
2024-01-21T01:48:34.795Z,74.33
2024-01-21T01:51:05.517Z,74.58
2024-01-21T01:53:34.394Z,74.45
2024-01-21T01:56:01.698Z,74.27
2024-01-21T01:58:29.224Z,74.21
2024-01-21T02:00:57.644Z,74.30
2024-01-21T02:03:25.751Z,74.21
2024-01-21T02:05:52.978Z,74.35
2024-01-21T02:08:19.903Z,74.09
2024-01-21T02:10:47.365Z,74.11
2024-01-21T02:13:14.143Z,74.05
2024-01-21T02:15:40.849Z,74.10
2024-01-21T02:18:07.692Z,74.19
2024-01-21T02:20:36.122Z,74.18
2024-01-21T02:23:05.349Z,74.02
2024-01-21T02:25:31.879Z,74.07
2024-01-21T02:27:58.535Z,74.23
2024-01-21T02:30:25.175Z,74.08
2024-01-21T02:32:51.888Z,73.91
2024-01-21T02:35:18.457Z,74.05
2024-01-21T02:37:45.007Z,74.13
2024-01-21T02:40:11.877Z,73.98
2024-01-21T02:42:38.641Z,74.04
2024-01-21T02:45:06.008Z,74.08
2024-01-21T02:47:32.630Z,74.21
2024-01-21T02:49:59.565Z,74.04
2024-01-21T02:52:26.463Z,73.99
2024-01-21T02:54:53.056Z,73.88
2024-01-21T02:57:19.959Z,73.84
2024-01-21T02:59:46.516Z,73.69
2024-01-21T03:02:13.060Z,73.62
2024-01-21T03:04:40.315Z,73.34
2024-01-21T03:07:06.852Z,73.28
2024-01-21T03:09:33.465Z,73.43
2024-01-21T03:12:00.303Z,73.46
2024-01-21T03:14:26.801Z,73.44
2024-01-21T03:16:54.923Z,73.50
2024-01-21T03:19:21.662Z,73.40
2024-01-21T03:21:48.374Z,73.59
2024-01-21T03:24:15.279Z,73.63
2024-01-21T03:26:42.317Z,73.45
2024-01-21T03:29:09.055Z,73.64
2024-01-21T03:31:35.656Z,73.35
2024-01-21T03:34:04.903Z,73.56
2024-01-21T03:39:22.954Z,73.55
2024-01-21T03:41:50.247Z,73.42
2024-01-21T03:44:16.851Z,73.29
2024-01-21T03:46:43.424Z,73.32
2024-01-21T03:49:10.280Z,73.41
2024-01-21T03:51:36.896Z,73.04
2024-01-21T03:54:03.864Z,73.08
2024-01-21T03:56:32.427Z,73.12
2024-01-21T03:58:58.912Z,73.30
2024-01-21T04:01:25.628Z,72.91
2024-01-21T04:03:52.873Z,73.41
2024-01-21T04:06:19.664Z,73.01
2024-01-21T04:08:46.655Z,72.98
2024-01-21T04:11:13.369Z,72.87
2024-01-21T04:13:41.220Z,73.08
2024-01-21T04:16:07.842Z,72.85
2024-01-21T04:18:34.609Z,73.12
2024-01-21T04:21:02.882Z,72.92
2024-01-21T04:23:29.383Z,72.92
2024-01-21T04:28:23.151Z,72.70
2024-01-21T04:30:50.027Z,72.87
2024-01-21T04:33:17.209Z,72.82
2024-01-21T04:35:44.364Z,73.09
2024-01-21T04:38:11.520Z,72.95
2024-01-21T04:40:39.803Z,73.28
2024-01-21T04:43:06.369Z,72.95
2024-01-21T04:45:33.429Z,72.99
2024-01-21T04:48:00.776Z,72.95
2024-01-21T04:50:27.989Z,72.75
2024-01-21T04:52:54.459Z,73.02
2024-01-21T04:55:21.009Z,72.74
2024-01-21T04:57:47.740Z,73.05
2024-01-21T05:00:15.529Z,72.63
2024-01-21T05:02:42.057Z,72.37
2024-01-21T05:05:09.031Z,72.01
2024-01-21T05:07:35.600Z,71.90
2024-01-21T05:10:02.570Z,72.04
2024-01-21T05:12:29.452Z,71.84
2024-01-21T05:14:57.378Z,71.61
2024-01-21T05:17:24.529Z,71.73
2024-01-21T05:19:51.547Z,71.89
2024-01-21T05:22:18.648Z,71.93
2024-01-21T05:24:45.231Z,72.08
2024-01-21T05:27:12.031Z,72.25
2024-01-21T05:29:43.070Z,72.04
2024-01-21T05:32:09.746Z,71.80
2024-01-21T05:34:36.798Z,71.84
2024-01-21T05:37:03.569Z,72.08
2024-01-21T05:39:30.522Z,71.93
2024-01-21T05:42:15.389Z,71.88
2024-01-21T05:44:43.088Z,72.30
2024-01-21T05:47:10.477Z,72.46
2024-01-21T05:49:37.183Z,72.65
2024-01-21T05:52:04.793Z,72.80
2024-01-21T05:54:31.585Z,73.05
2024-01-21T05:56:58.410Z,73.32
2024-01-21T05:59:25.259Z,73.62
2024-01-21T06:01:52.658Z,73.86
2024-01-21T06:04:19.435Z,74.18
2024-01-21T06:06:46.351Z,75.01
2024-01-21T06:09:13.195Z,75.39
2024-01-21T06:11:41.762Z,75.65
2024-01-21T06:14:08.859Z,76.19
2024-01-21T06:16:35.621Z,76.72
2024-01-21T06:19:03.001Z,76.93
2024-01-21T06:21:30.263Z,77.33
2024-01-21T06:23:57.355Z,77.33
2024-01-21T06:26:24.415Z,77.70
2024-01-21T06:28:51.645Z,77.58
2024-01-21T06:31:19.527Z,77.81
2024-01-21T06:33:46.808Z,77.75
2024-01-21T06:36:13.526Z,77.92
2024-01-21T06:38:40.346Z,77.52
2024-01-21T06:41:06.871Z,78.14
2024-01-21T06:43:33.851Z,78.25
2024-01-21T06:46:00.712Z,77.98
2024-01-21T06:48:28.378Z,78.14
2024-01-21T06:50:55.356Z,78.30
2024-01-21T06:53:21.945Z,78.19
2024-01-21T06:55:48.565Z,78.30
2024-01-21T06:58:15.231Z,78.47
2024-01-21T07:00:42.067Z,78.51
2024-01-21T07:03:09.273Z,78.66
2024-01-21T07:05:36.115Z,78.62
2024-01-21T07:08:03.057Z,78.40
2024-01-21T07:10:29.620Z,78.16
2024-01-21T07:12:57.463Z,78.39
2024-01-21T07:15:25.522Z,78.01
2024-01-21T07:17:52.457Z,78.22
2024-01-21T07:20:19.485Z,78.26
2024-01-21T07:22:46.232Z,78.25
2024-01-21T07:25:15.795Z,78.15
2024-01-21T07:27:44.295Z,78.35
2024-01-21T07:30:12.648Z,78.31
2024-01-21T07:32:41.022Z,78.31
2024-01-21T07:35:10.393Z,78.50
2024-01-21T07:37:37.906Z,78.38
2024-01-21T07:40:06.937Z,78.08
2024-01-21T07:42:34.258Z,78.09
2024-01-21T07:45:00.884Z,77.72
2024-01-21T07:47:28.428Z,77.44
2024-01-21T07:49:55.107Z,77.60
2024-01-21T07:52:22.374Z,77.64
2024-01-21T07:54:49.318Z,77.21
2024-01-21T07:57:15.891Z,77.34
2024-01-21T07:59:43.081Z,76.88
2024-01-21T08:02:10.145Z,76.67
2024-01-21T08:04:37.582Z,76.24
2024-01-21T08:07:04.777Z,75.99
2024-01-21T08:09:32.502Z,75.81
2024-01-21T08:11:59.154Z,75.37
2024-01-21T08:14:26.103Z,75.23
2024-01-21T08:16:53.299Z,75.16
2024-01-21T08:19:21.890Z,74.98
2024-01-21T08:21:48.693Z,74.23
2024-01-21T08:24:15.706Z,74.38
2024-01-21T08:26:42.842Z,74.00
2024-01-21T08:29:09.364Z,73.96
2024-01-21T08:31:43.953Z,73.75
2024-01-21T08:34:10.974Z,74.07
2024-01-21T08:36:38.821Z,74.28
2024-01-21T08:39:06.608Z,74.14
2024-01-21T08:41:36.002Z,74.03
2024-01-21T08:44:05.884Z,74.03
2024-01-21T08:46:32.433Z,74.40
2024-01-21T08:49:00.149Z,74.16
2024-01-21T08:51:26.901Z,74.22
2024-01-21T08:53:58.201Z,74.12
2024-01-21T08:56:26.866Z,73.13
2024-01-21T08:58:54.683Z,72.82
2024-01-21T09:01:22.566Z,73.17
2024-01-21T09:03:49.967Z,72.94
2024-01-21T09:06:17.004Z,73.01
2024-01-21T09:08:44.098Z,72.81
2024-01-21T09:11:10.826Z,73.01
2024-01-21T09:13:37.514Z,72.91
2024-01-21T09:16:04.435Z,72.50
2024-01-21T09:18:32.522Z,72.31
2024-01-21T09:21:00.070Z,72.55
2024-01-21T09:23:27.277Z,72.67
2024-01-21T09:25:53.933Z,72.71
2024-01-21T09:28:20.755Z,72.14
2024-01-21T09:30:47.993Z,72.12
2024-01-21T09:33:15.103Z,71.91
2024-01-21T09:35:42.984Z,71.74
2024-01-21T09:38:12.017Z,71.60
2024-01-21T09:40:39.179Z,71.77
2024-01-21T09:43:06.081Z,72.04
2024-01-21T09:45:35.509Z,71.85
2024-01-21T09:48:05.089Z,71.70
2024-01-21T09:50:32.726Z,71.60
2024-01-21T09:52:59.291Z,71.55
2024-01-21T09:55:26.250Z,71.74
2024-01-21T09:57:54.391Z,71.94
2024-01-21T10:00:21.977Z,72.09
2024-01-21T10:02:51.235Z,72.04
2024-01-21T10:05:17.995Z,72.45
2024-01-21T10:07:45.436Z,72.17
2024-01-21T10:10:13.925Z,72.16
2024-01-21T10:12:42.107Z,72.38
2024-01-21T10:15:13.045Z,72.64
2024-01-21T10:17:39.672Z,72.86
2024-01-21T10:20:14.219Z,73.02
2024-01-21T10:22:42.852Z,72.89
2024-01-21T10:25:13.291Z,73.02
2024-01-21T10:27:39.899Z,73.12
2024-01-21T10:30:09.288Z,73.09
2024-01-21T10:32:36.085Z,73.18
2024-01-21T10:35:03.314Z,73.00
2024-01-21T10:37:32.104Z,73.02
2024-01-21T10:40:01.261Z,72.66
2024-01-21T10:42:29.745Z,72.72
2024-01-21T10:44:57.342Z,72.64
2024-01-21T10:47:25.895Z,72.41
2024-01-21T10:49:52.590Z,72.58
2024-01-21T10:52:21.096Z,72.51
2024-01-21T10:54:49.079Z,72.43
2024-01-21T10:57:16.821Z,72.45
2024-01-21T10:59:45.174Z,72.59
2024-01-21T11:02:12.169Z,72.93
2024-01-21T11:04:38.890Z,72.83
2024-01-21T11:07:09.625Z,72.59
2024-01-21T11:09:38.232Z,72.78
2024-01-21T11:12:06.132Z,72.69
2024-01-21T11:14:37.836Z,73.02
2024-01-21T11:17:11.503Z,72.80
2024-01-21T11:19:50.663Z,72.59
2024-01-21T11:22:21.463Z,72.65
2024-01-21T11:24:48.214Z,72.45
2024-01-21T11:27:15.722Z,72.36
2024-01-21T11:29:42.996Z,72.20
2024-01-21T11:32:12.287Z,72.25
2024-01-21T11:34:42.606Z,71.86
2024-01-21T11:37:15.034Z,71.53
2024-01-21T11:39:43.422Z,71.42
2024-01-21T11:42:11.338Z,70.66
2024-01-21T11:44:39.555Z,69.44
2024-01-21T11:47:07.706Z,67.96
2024-01-21T11:49:35.776Z,66.06
2024-01-21T11:52:07.313Z,63.18
2024-01-21T11:54:38.361Z,58.84
2024-01-21T11:57:08.987Z,54.07
2024-01-21T11:59:36.984Z,50.84
2024-01-21T12:02:08.880Z,47.53
2024-01-21T12:04:36.125Z,45.61
2024-01-21T12:07:04.355Z,47.04
2024-01-21T12:09:32.292Z,47.34
2024-01-21T12:11:59.367Z,48.95
2024-01-21T12:14:26.818Z,50.02
2024-01-21T12:16:55.306Z,51.17
2024-01-21T12:19:24.804Z,50.86
2024-01-21T12:21:52.893Z,50.28
2024-01-21T12:24:24.048Z,50.20
2024-01-21T12:26:52.003Z,49.81
2024-01-21T12:29:21.240Z,49.09
2024-01-21T12:31:50.462Z,48.29
2024-01-21T12:34:19.988Z,47.99
2024-01-21T12:36:48.084Z,47.71
2024-01-21T12:39:17.517Z,46.77
2024-01-21T12:41:44.345Z,45.22
2024-01-21T12:44:11.051Z,44.72
2024-01-21T12:46:39.386Z,43.44
2024-01-21T12:49:07.365Z,43.34
2024-01-21T12:51:36.549Z,43.25
2024-01-21T12:54:03.635Z,43.53
2024-01-21T12:56:30.301Z,44.54
2024-01-21T12:58:57.137Z,44.99
2024-01-21T13:01:24.694Z,45.97
2024-01-21T13:03:54.266Z,46.53
2024-01-21T13:06:22.242Z,46.44
2024-01-21T13:08:49.933Z,46.54
2024-01-21T13:11:16.859Z,45.96
2024-01-21T13:13:43.429Z,45.70
2024-01-21T13:16:11.105Z,44.64
2024-01-21T13:18:38.965Z,44.67
2024-01-21T13:21:08.609Z,44.39
2024-01-21T13:23:35.778Z,44.84
2024-01-21T13:26:03.006Z,44.85
2024-01-21T13:28:39.863Z,44.03
2024-01-21T13:31:07.036Z,42.54
2024-01-21T13:33:34.249Z,42.00
2024-01-21T13:36:01.695Z,41.51
2024-01-21T13:38:33.921Z,41.88
2024-01-21T13:41:04.496Z,42.03
2024-01-21T13:43:32.411Z,42.10
2024-01-21T13:45:59.382Z,42.70
2024-01-21T13:48:26.151Z,41.98
2024-01-21T13:50:53.338Z,42.39
2024-01-21T13:53:20.112Z,42.97
2024-01-21T13:55:47.801Z,43.99
2024-01-21T13:58:18.467Z,43.91
2024-01-21T14:00:45.804Z,44.04
2024-01-21T14:03:13.729Z,43.40
2024-01-21T14:05:41.615Z,44.10
2024-01-21T14:08:08.548Z,45.08
2024-01-21T14:10:35.810Z,45.93
2024-01-21T14:13:03.520Z,47.41
2024-01-21T14:15:30.360Z,48.82
2024-01-21T14:17:57.756Z,50.14
2024-01-21T14:20:24.890Z,51.03
2024-01-21T14:22:51.978Z,52.54
2024-01-21T14:25:28.192Z,53.51
2024-01-21T14:27:55.881Z,55.12
2024-01-21T14:30:30.627Z,56.10
2024-01-21T14:32:59.045Z,57.00
2024-01-21T14:35:29.998Z,57.57
2024-01-21T14:37:59.006Z,58.61
2024-01-21T14:40:29.828Z,59.57
2024-01-21T14:42:58.629Z,60.35
2024-01-21T14:45:25.855Z,61.05
2024-01-21T14:47:53.934Z,61.39
2024-01-21T14:50:20.796Z,62.04
2024-01-21T14:52:49.249Z,62.67
2024-01-21T14:55:16.960Z,62.96
2024-01-21T14:57:45.948Z,63.48
2024-01-21T15:00:14.087Z,63.97
2024-01-21T15:02:41.160Z,64.32
2024-01-21T15:05:09.413Z,64.58
2024-01-21T15:07:37.018Z,65.20
2024-01-21T15:10:05.845Z,65.34
2024-01-21T15:12:33.328Z,65.74
2024-01-21T15:15:28.953Z,66.21
2024-01-21T15:17:55.918Z,66.33
2024-01-21T15:20:22.753Z,66.65
2024-01-21T15:22:49.417Z,67.14
2024-01-21T15:25:16.606Z,67.39
2024-01-21T15:27:43.235Z,67.84
2024-01-21T15:30:10.925Z,68.12
2024-01-21T15:32:39.208Z,68.38
2024-01-21T15:35:06.463Z,68.65
2024-01-21T15:37:33.563Z,68.91
2024-01-21T15:40:00.497Z,69.20
2024-01-21T15:42:27.628Z,69.49
2024-01-21T15:44:54.694Z,69.69
2024-01-21T15:47:21.489Z,70.05
2024-01-21T15:49:48.765Z,70.13
2024-01-21T15:52:16.139Z,70.31
2024-01-21T15:54:42.870Z,70.46
2024-01-21T15:57:10.254Z,70.68
2024-01-21T15:59:36.803Z,70.91
2024-01-21T16:02:04.539Z,70.98
2024-01-21T16:04:31.573Z,71.25
2024-01-21T16:06:58.354Z,71.43
2024-01-21T16:09:25.016Z,71.59
2024-01-21T16:11:52.454Z,71.70
2024-01-21T16:14:19.204Z,71.68
2024-01-21T16:16:47.920Z,71.83
2024-01-21T16:19:15.825Z,71.97
2024-01-21T16:21:43.077Z,72.00
2024-01-21T16:24:10.343Z,72.20
2024-01-21T16:26:36.978Z,72.32
2024-01-21T16:29:03.925Z,72.27
2024-01-21T16:31:32.112Z,72.62
2024-01-21T16:33:59.183Z,72.56
2024-01-21T16:36:27.034Z,72.76
2024-01-21T16:38:53.707Z,73.66
2024-01-21T16:41:20.466Z,73.54
2024-01-21T16:43:50.466Z,73.32
2024-01-21T16:46:17.432Z,73.20
2024-01-21T16:48:44.143Z,73.34
2024-01-21T16:51:11.808Z,73.24
2024-01-21T16:53:39.272Z,73.45
2024-01-21T16:56:06.552Z,73.39
2024-01-21T16:58:33.584Z,73.50
2024-01-21T17:01:02.289Z,73.44
2024-01-21T17:03:30.828Z,73.70
2024-01-21T17:05:58.588Z,73.78
2024-01-21T17:08:25.390Z,73.75
2024-01-21T17:11:11.006Z,73.87
2024-01-21T17:13:37.841Z,74.03
2024-01-21T17:16:05.479Z,74.18
2024-01-21T17:18:59.790Z,74.16
2024-01-21T17:21:26.416Z,74.19
2024-01-21T17:23:53.627Z,74.30
2024-01-21T17:26:20.274Z,74.41
2024-01-21T17:28:48.230Z,74.36
2024-01-21T17:31:14.881Z,74.57
2024-01-21T17:33:45.587Z,74.64
2024-01-21T17:36:13.320Z,74.81
2024-01-21T17:38:39.988Z,74.99
2024-01-21T17:41:07.272Z,74.99
2024-01-21T17:43:34.178Z,75.11
2024-01-21T17:46:00.818Z,75.10
2024-01-21T17:48:27.888Z,75.17
2024-01-21T17:50:54.880Z,75.32
2024-01-21T17:53:21.778Z,75.48
2024-01-21T17:55:49.844Z,75.34
2024-01-21T17:58:17.161Z,75.55
2024-01-21T18:00:45.298Z,75.53
2024-01-21T18:03:12.296Z,75.63
2024-01-21T18:05:39.030Z,75.72
2024-01-21T18:08:06.466Z,75.68
2024-01-21T18:10:33.349Z,75.85
2024-01-21T18:13:00.153Z,75.62
2024-01-21T18:15:26.793Z,75.72
2024-01-21T18:17:53.903Z,75.87
2024-01-21T18:20:20.570Z,75.97
2024-01-21T18:22:47.323Z,75.97
2024-01-21T18:25:14.746Z,75.63
2024-01-21T18:27:41.443Z,75.72
2024-01-21T18:30:10.182Z,75.80
2024-01-21T18:32:36.974Z,75.38
2024-01-21T18:35:05.608Z,75.39
2024-01-21T18:37:33.281Z,75.42
2024-01-21T18:39:59.857Z,75.44
2024-01-21T18:42:27.414Z,75.53
2024-01-21T18:44:54.315Z,75.49
2024-01-21T18:47:20.955Z,75.27
2024-01-21T18:49:47.609Z,75.31
2024-01-21T18:52:14.903Z,75.21
2024-01-21T18:54:41.979Z,75.18
2024-01-21T18:57:12.612Z,75.03
2024-01-21T18:59:42.815Z,75.04
2024-01-21T19:02:11.056Z,75.10
2024-01-21T19:04:44.529Z,75.10
2024-01-21T19:07:15.381Z,74.90
2024-01-21T19:09:42.157Z,75.03
2024-01-21T19:12:09.404Z,75.02
2024-01-21T19:14:36.897Z,74.78
2024-01-21T19:17:04.006Z,74.80
2024-01-21T19:19:31.391Z,74.91
2024-01-21T19:21:59.471Z,74.76
2024-01-21T19:24:26.288Z,74.93
2024-01-21T19:26:53.011Z,75.15
2024-01-21T19:29:19.989Z,74.95
2024-01-21T19:31:46.878Z,75.03
2024-01-21T19:34:13.701Z,75.03
2024-01-21T19:36:40.682Z,74.93
2024-01-21T19:39:07.421Z,75.11
2024-01-21T19:41:34.561Z,75.22
2024-01-21T19:44:01.237Z,75.15
2024-01-21T19:46:27.790Z,75.19
2024-01-21T19:48:54.864Z,75.33
2024-01-21T19:51:26.481Z,75.18
2024-01-21T19:53:53.801Z,75.04
2024-01-21T19:56:21.791Z,75.32
2024-01-21T19:58:49.757Z,75.34
2024-01-21T20:01:16.335Z,75.42
2024-01-21T20:03:44.405Z,75.28
2024-01-21T20:06:14.199Z,75.28
2024-01-21T20:08:41.556Z,75.34
2024-01-21T20:11:08.860Z,75.30
2024-01-21T20:13:35.481Z,75.33
2024-01-21T20:16:02.218Z,75.19
2024-01-21T20:18:29.746Z,75.33
2024-01-21T20:20:56.658Z,75.38
2024-01-21T20:23:23.419Z,75.32
2024-01-21T20:25:50.124Z,75.19
2024-01-21T20:28:18.166Z,75.07
2024-01-21T20:30:44.951Z,75.21
2024-01-21T20:33:12.046Z,75.33
2024-01-21T20:35:40.733Z,75.23
2024-01-21T20:38:07.941Z,75.16
2024-01-21T20:40:34.915Z,75.06
2024-01-21T20:43:01.522Z,75.23
2024-01-21T20:45:28.726Z,74.92
2024-01-21T20:47:56.749Z,75.06
2024-01-21T20:50:23.563Z,75.12
2024-01-21T20:52:56.645Z,75.12
2024-01-21T20:55:26.936Z,74.99
2024-01-21T20:57:54.279Z,75.18
2024-01-21T21:00:22.294Z,75.10
2024-01-21T21:02:49.084Z,75.12
2024-01-21T21:05:16.022Z,75.32
2024-01-21T21:07:42.909Z,75.18
2024-01-21T21:10:10.465Z,75.32
2024-01-21T21:12:37.094Z,75.18
2024-01-21T21:15:03.827Z,75.21
2024-01-21T21:17:31.172Z,75.26
2024-01-21T21:19:57.870Z,75.16
2024-01-21T21:22:24.479Z,75.20
2024-01-21T21:24:51.256Z,75.15
2024-01-21T21:27:18.314Z,75.28
2024-01-21T21:29:45.146Z,75.33
2024-01-21T21:32:11.848Z,75.27
2024-01-21T21:34:39.265Z,75.36
2024-01-21T21:37:07.106Z,75.45
2024-01-21T21:39:34.149Z,75.51
2024-01-21T21:42:01.200Z,75.65
2024-01-21T21:44:28.405Z,75.73
2024-01-21T21:46:56.514Z,75.82
2024-01-21T21:49:24.806Z,76.00
2024-01-21T21:51:51.814Z,76.17
2024-01-21T21:54:19.116Z,76.17
2024-01-21T21:56:47.002Z,76.26
2024-01-21T21:59:13.918Z,76.40
2024-01-21T22:01:40.532Z,76.60
2024-01-21T22:04:07.686Z,76.77
2024-01-21T22:06:34.884Z,76.75
2024-01-21T22:09:02.072Z,76.81
2024-01-21T22:11:29.209Z,76.76
2024-01-21T22:13:56.089Z,76.83
2024-01-21T22:16:22.656Z,77.00
2024-01-21T22:18:49.877Z,77.13
2024-01-21T22:21:20.523Z,77.22
2024-01-21T22:23:48.746Z,77.48
2024-01-21T22:26:19.271Z,77.36
2024-01-21T22:28:46.053Z,77.29
2024-01-21T22:31:13.718Z,77.17
2024-01-21T22:33:40.694Z,77.24
2024-01-21T22:36:07.716Z,77.05
2024-01-21T22:38:34.639Z,76.93
2024-01-21T22:41:01.332Z,76.91
2024-01-21T22:43:28.071Z,76.62
2024-01-21T22:45:54.853Z,76.49
2024-01-21T22:48:22.091Z,76.23
2024-01-21T22:50:49.035Z,76.20
2024-01-21T22:53:16.284Z,75.92
2024-01-21T22:55:42.815Z,75.50
2024-01-21T22:58:09.551Z,75.40
2024-01-21T23:00:36.231Z,74.98
2024-01-21T23:03:03.281Z,74.57
2024-01-21T23:05:30.055Z,74.37
2024-01-21T23:07:56.778Z,74.23
2024-01-21T23:10:23.326Z,73.77
2024-01-21T23:12:50.031Z,73.99
2024-01-21T23:15:17.161Z,73.84
2024-01-21T23:17:44.133Z,73.53
2024-01-21T23:20:11.502Z,73.66
2024-01-21T23:22:38.299Z,73.47
2024-01-21T23:25:05.725Z,73.39
2024-01-21T23:27:32.302Z,73.31
2024-01-21T23:29:59.073Z,73.10
2024-01-21T23:32:26.243Z,73.00
2024-01-21T23:34:53.756Z,73.04
2024-01-21T23:37:20.927Z,72.83
2024-01-21T23:39:47.502Z,72.83
2024-01-21T23:42:14.582Z,72.87
2024-01-21T23:44:41.293Z,72.87
2024-01-21T23:47:07.808Z,72.82
2024-01-21T23:49:35.173Z,72.96
2024-01-21T23:52:01.913Z,72.87
2024-01-21T23:54:28.647Z,72.98
2024-01-21T23:56:55.281Z,72.78
2024-01-21T23:59:22.244Z,72.82
